Aktualne dane pomiarowe

Uwaga, wersja testowa! Automatyczne pobieranie danych za pomocą narzędzi lub skryptów to umożliwiających jest zabronione.

Dane meteo z obszaru Polski uzyskane na podstawie depesz SYNOP pobieranych co godzinę z NWS. Najedź myszką na symbol przedstawiony w tabeli, aby uzyskać informacje co do jego znaczenia. Prosimy pamiętać, że to testowa wersja strony, która jeszcze nie jest ukończona. Stworzono również jest krótki FAQ dotyczący korzystania z tej podstrony Anomalie temperatury w chwili obecnej odniesione są do okresu referencyjnego 1951-2016. Okres ten będzie później zmieniony na 1981-2010. Kliknij ikonę aby pobrać plik CSV. Kliknij ikonę aby wygenerować mapę synoptyczną dla danego terminu.

Wybierz Datę:    

        

Nowy Sącz (12660)

Dane terminowe dla wybranej stacji. Kliknij datę, aby otrzymać dane z tego terminu dla wszystkich stacji.

TemperaturaZachmurzenieWiatrCiśnienieOpadyPogoda
 Data t td wb tx tn tg rh  Nt Nl Cl Cm Ch ws wd g1 g2 wx mslp ppp ch 24h 12h t ww ww w1 w2  
2019-08-08 23:00:00 15.3 13.3 13.9--- 885.0--1wx--11015.4 980.5 0.9---wx-----
2019-08-08 22:00:00 15.8 13.5 14.2--- 869.0--1wx--11015.1 980.3 1.0---wx-----
2019-08-08 21:00:00 16.5 13.8 14.6--- 8411.0--1wx--11014.6 979.9 1.2---------
2019-08-08 20:00:00 18.4 12.8 14.8--- 7022.0--1wx---1014.0 979.6 1.1---------
2019-08-08 19:00:00 18.8 14.3 15.8--- 7516.0--1wx--11013.7 979.3 0.7---------
2019-08-08 18:00:00 21.1 13.0 16.0 25.8 18.4- 6024.0--1wx-911012.8 978.7 0.3--12------
2019-08-08 17:00:00 22.8 11.8 16.1--- 5035.0--1wx--11012.4 978.5 -0.1---------
2019-08-08 16:00:00 24.4 12.0 16.9--- 4630.0--1wx---1012.3 978.6 0.1---------
2019-08-08 15:00:00 25.0 11.5 16.9--- 4335.0--2wx-921012.0 978.4 -0.1---------
2019-08-08 14:00:00 25.4 11.9 17.2--- 4330.0--3wx-931012.2 978.6 0.2---------
2019-08-08 13:00:00 24.9 11.1 16.6--- 4230.0--4wx9941012.1 978.5 0.0---------
2019-08-08 12:00:00 24.6 14.1 18.0--- 5230.0--3wx-931012.2 978.5 0.1--6------
2019-08-08 11:00:00 24.0 14.1 17.7--- 5429.0--2wx--21012.1 978.4 0.1---------
2019-08-08 10:00:00 21.9 13.5 16.6--- 5940.0--3wx8931012.5 978.5 0.9---------
2019-08-08 09:00:00 20.9 14.8 16.9--- 6830.0--3wx8931012.5 978.4 1.6---------
2019-08-08 08:00:00 19.6 14.4 16.2--- 7235.0--4wx9941012.6 978.3 2.5---wx-----
2019-08-08 07:00:00 18.9 15.2 16.4--- 7940.0--1wx-911011.9 977.6 2.5---------
2019-08-08 06:00:00 18.5 15.7 16.5 23.1 17.1 16 8450.0--2wx-821011.1 976.8 2.5 17.0 15.012----- 8.7
2019-08-08 05:00:00 17.8 17.0 17.2--- 9511.0--0----1010.2 975.8 1.8---wx-----
2019-08-08 04:00:00 17.6 17.0 17.2--- 9626.0--1wx---1009.5 975.1 1.1---------
2019-08-08 03:00:00 17.4 16.8 17.0--- 9612.0--1wx-811008.7 974.3 1.2---wx-----
2019-08-08 02:00:00 17.2 16.4 16.6--- 956.0--2wx--21008.4 974.0 1.5---wx-----
2019-08-08 01:00:00 18.7 17.2 17.6--- 913.4--1wx-811008.2 974.0 0.8---wx-----
2019-08-08 00:00:00 20.2 16.8 17.8--- 8118.0--2wx7721007.1 973.1 -0.3--6wx-----
2019-08-07 23:00:00 19.5 16.3 17.3--- 8227.0--1wx--11006.6 972.5 -1.1---------
2019-08-07 22:00:00 19.5 16.0 17.1--- 8026.0--1wx--11007.3 973.2 -0.7---------
2019-08-07 21:00:00 20.3 16.3 17.5--- 7830.0--0----1007.4 973.4 -0.7---------
2019-08-07 20:00:00 20.9 16.3 17.8--- 7524.0--1wx---1007.5 973.6 -0.7---------
2019-08-07 19:00:00 22.6 16.2 18.3--- 6740.0--1wx---1007.7 973.9 -0.1---------
2019-08-07 18:00:00 23.1 17.1 19.0 29.6 20.1- 6930.0--2wx-1321007.8 974.1 -0.9- 2.012------
2019-08-07 17:00:00 24.8 17.3 19.8--- 6330.0--2wx-921007.8 974.3 -1.1---------
2019-08-07 16:00:00 26.1 18.0 20.7--- 6130.0--2wx--21007.4 974.0 -1.0---------
2019-08-07 15:00:00 24.1 17.6 19.7--- 6735.0--1wx-1311008.6 975.0 1.0---------
2019-08-07 14:00:00 23.4 17.6 19.4--- 7040.0--3wx---1009.1 975.4 0.8---wx-----
2019-08-07 13:00:00 22.1 17.5 18.9--- 758.0--4wx131341008.8 975.0 -0.6---wx-----
2019-08-07 12:00:00 29.2 17.4 21.5--- 4930.0--3wx-1331007.0 974.0 -2.0- 0.56------
2019-08-07 11:00:00 26.3 16.8 20.1--- 5635.0--3wx-1331008.0 974.6 -1.6---------
2019-08-07 10:00:00 28.7 16.3 20.7--- 4735.0--4wx-841008.7 975.6 -1.0---------
2019-08-07 09:00:00 27.4 16.1 20.1--- 5030.0--2wx7--1009.3 976.0 -0.8---------
2019-08-07 08:00:00 25.2 15.8 19.1--- 5635.0--1wx--11009.7 976.2 -0.9---------
2019-08-07 07:00:00 23.0 16.8 18.8--- 6828.0--1wx--11010.4 976.6 -0.4---------
2019-08-07 06:00:00 20.1 16.3 17.5 22.4 16.9 15 7921.0--1wx--11010.9 976.8 -0.2 0.1 0.012----- 8.3
2019-08-07 05:00:00 18.5 15.7 16.5--- 8425.0--1wx--11011.4 977.1 0.1---------
2019-08-07 04:00:00 17.5 15.5 16.1--- 8821.0--1wx---1011.5 977.0 -0.1---------
2019-08-07 03:00:00 17.3 15.3 15.9--- 8817.0--1wx--11011.5 977.0 -0.1---------
2019-08-07 02:00:00 18.0 15.8 16.4--- 8718.0--0---01011.4 977.0 -0.1---------
2019-08-07 01:00:00 18.9 15.8 16.7--- 8230.0--2wx--21011.4 977.1 -0.2---------
2019-08-07 00:00:00 18.9 15.9 16.8--- 8327.0--1wx--11011.4 977.1 -0.4- 0.06------
1.7 ms

 

Print Friendly, PDF & Email